createdAt,value
2023-05-20T00:02:04.902Z,61.48
2023-05-20T00:05:09.292Z,62.19
2023-05-20T00:08:13.524Z,62.29
2023-05-20T00:11:16.398Z,62.03
2023-05-20T00:14:19.144Z,62.46
2023-05-20T00:17:21.917Z,62.78
2023-05-20T00:20:25.863Z,62.92
2023-05-20T00:23:30.045Z,63.38
2023-05-20T00:26:32.773Z,63.73
2023-05-20T00:29:35.776Z,64.42
2023-05-20T00:32:38.569Z,64.67
2023-05-20T00:35:41.363Z,65.35
2023-05-20T00:38:45.560Z,65.73
2023-05-20T00:41:48.366Z,66.12
2023-05-20T00:44:51.490Z,66.47
2023-05-20T00:47:57.281Z,66.44
2023-05-20T00:51:01.130Z,66.78
2023-05-20T00:54:05.321Z,67.13
2023-05-20T00:57:09.301Z,67.06
2023-05-20T01:00:13.733Z,67.36
2023-05-20T01:03:17.077Z,67.87
2023-05-20T01:06:20.184Z,68.61
2023-05-20T01:13:48.828Z,69.37
2023-05-20T01:16:54.277Z,69.35
2023-05-20T01:19:57.273Z,69.60
2023-05-20T01:23:02.316Z,70.43
2023-05-20T01:26:06.521Z,70.66
2023-05-20T01:29:09.335Z,71.20
2023-05-20T01:32:13.692Z,71.49
2023-05-20T01:35:18.047Z,71.69
2023-05-20T01:38:24.410Z,72.07
2023-05-20T01:41:28.770Z,72.05
2023-05-20T01:44:31.939Z,72.32
2023-05-20T01:47:34.918Z,72.94
2023-05-20T01:50:37.645Z,72.57
2023-05-20T01:53:41.798Z,72.78
2023-05-20T01:56:46.757Z,72.74
2023-05-20T01:59:49.812Z,73.01
2023-05-20T02:02:52.990Z,72.45
2023-05-20T02:05:55.838Z,72.40
2023-05-20T02:09:00.366Z,71.97
2023-05-20T02:12:03.196Z,72.10
2023-05-20T02:15:07.409Z,71.76
2023-05-20T02:18:12.548Z,71.40
2023-05-20T02:21:15.357Z,71.44
2023-05-20T02:24:21.132Z,71.29
2023-05-20T02:27:23.876Z,71.36
2023-05-20T02:30:28.241Z,70.94
2023-05-20T02:33:30.998Z,71.26
2023-05-20T02:36:33.788Z,71.18
2023-05-20T02:39:37.890Z,71.36
2023-05-20T02:42:42.180Z,71.25
2023-05-20T02:45:45.170Z,71.68
2023-05-20T02:48:48.009Z,71.44
2023-05-20T02:51:50.946Z,71.43
2023-05-20T02:54:55.122Z,71.79
2023-05-20T02:57:57.953Z,71.93
2023-05-20T03:01:00.998Z,71.81
2023-05-20T03:04:04.718Z,72.14
2023-05-20T03:07:09.032Z,71.89
2023-05-20T03:10:13.566Z,71.86
2023-05-20T03:13:16.490Z,72.14
2023-05-20T03:16:19.356Z,72.01
2023-05-20T03:19:22.180Z,72.16
2023-05-20T03:22:24.973Z,72.11
2023-05-20T03:25:29.636Z,72.36
2023-05-20T03:28:54.676Z,72.19
2023-05-20T03:31:57.391Z,72.29
2023-05-20T03:35:00.192Z,72.42
2023-05-20T03:38:03.167Z,72.32
2023-05-20T03:41:07.285Z,72.50
2023-05-20T03:44:09.989Z,72.37
2023-05-20T03:47:12.740Z,72.46
2023-05-20T03:50:15.587Z,72.58
2023-05-20T03:53:20.221Z,72.67
2023-05-20T03:56:24.644Z,72.86
2023-05-20T03:59:27.373Z,72.83
2023-05-20T04:02:30.965Z,72.83
2023-05-20T04:05:34.415Z,72.78
2023-05-20T04:08:37.651Z,72.75
2023-05-20T04:11:41.714Z,73.11
2023-05-20T04:14:44.413Z,73.25
2023-05-20T04:17:48.564Z,73.64
2023-05-20T04:20:56.516Z,73.53
2023-05-20T04:23:59.281Z,73.46
2023-05-20T04:27:03.438Z,73.84
2023-05-20T04:30:08.082Z,73.59
2023-05-20T04:33:11.260Z,73.82
2023-05-20T04:36:16.604Z,73.81
2023-05-20T04:39:20.605Z,73.76
2023-05-20T04:42:24.839Z,73.59
2023-05-20T04:45:27.719Z,73.15
2023-05-20T04:48:30.473Z,73.18
2023-05-20T04:51:34.207Z,73.22
2023-05-20T04:54:36.966Z,73.31
2023-05-20T04:57:42.213Z,73.35
2023-05-20T05:00:46.067Z,73.06
2023-05-20T05:03:48.763Z,73.24
2023-05-20T05:06:52.030Z,73.03
2023-05-20T05:09:54.787Z,72.83
2023-05-20T05:12:58.904Z,72.78
2023-05-20T05:16:02.455Z,72.72
2023-05-20T05:19:05.299Z,72.89
2023-05-20T05:22:08.089Z,72.33
2023-05-20T05:25:12.076Z,72.22
2023-05-20T05:28:16.134Z,72.57
2023-05-20T05:31:18.950Z,72.21
2023-05-20T05:34:22.502Z,71.64
2023-05-20T05:37:25.397Z,70.80
2023-05-20T05:40:28.427Z,70.43
2023-05-20T05:43:32.669Z,68.47
2023-05-20T05:46:35.799Z,65.97
2023-05-20T05:49:38.579Z,62.70
2023-05-20T05:52:41.426Z,61.22
2023-05-20T05:55:44.126Z,62.07
2023-05-20T05:58:48.693Z,59.66
2023-05-20T06:01:51.458Z,56.89
2023-05-20T06:04:54.524Z,56.76
2023-05-20T06:07:57.555Z,58.78
2023-05-20T06:11:00.256Z,57.53
2023-05-20T06:14:05.081Z,54.12
2023-05-20T06:17:08.022Z,52.24
2023-05-20T06:20:11.496Z,52.28
2023-05-20T06:23:14.332Z,52.13
2023-05-20T06:26:17.194Z,52.20
2023-05-20T06:29:21.710Z,51.72
2023-05-20T06:32:24.461Z,51.13
2023-05-20T06:35:27.271Z,51.83
2023-05-20T06:38:30.049Z,50.97
2023-05-20T06:41:32.819Z,50.49
2023-05-20T06:44:37.002Z,50.75
2023-05-20T06:47:39.889Z,50.84
2023-05-20T06:50:42.688Z,50.14
2023-05-20T06:53:45.583Z,50.11
2023-05-20T06:56:48.811Z,49.28
2023-05-20T06:59:53.058Z,48.15
2023-05-20T07:02:56.158Z,47.26
2023-05-20T07:05:59.175Z,46.84
2023-05-20T07:09:02.181Z,46.58
2023-05-20T07:12:05.318Z,47.06
2023-05-20T07:15:10.719Z,47.77
2023-05-20T07:18:13.599Z,47.31
2023-05-20T07:21:16.530Z,47.15
2023-05-20T07:24:21.667Z,47.13
2023-05-20T07:27:24.530Z,47.68
2023-05-20T07:30:29.034Z,47.28
2023-05-20T07:33:34.737Z,48.27
2023-05-20T07:36:38.302Z,48.54
2023-05-20T07:39:41.290Z,47.97
2023-05-20T07:42:44.133Z,48.32
2023-05-20T07:45:48.620Z,47.91
2023-05-20T07:48:51.908Z,47.69
2023-05-20T07:51:54.633Z,48.57
2023-05-20T07:54:57.355Z,49.59
2023-05-20T07:58:00.114Z,49.33
2023-05-20T08:01:04.210Z,50.26
2023-05-20T08:04:07.026Z,51.74
2023-05-20T08:07:09.905Z,53.40
2023-05-20T08:10:13.675Z,54.64
2023-05-20T08:13:16.438Z,54.56
2023-05-20T08:16:22.428Z,54.84
2023-05-20T08:19:25.358Z,55.55
2023-05-20T08:22:28.257Z,56.26
2023-05-20T08:25:31.280Z,56.05
2023-05-20T08:28:34.298Z,56.05
2023-05-20T08:31:38.521Z,56.26
2023-05-20T08:34:42.786Z,56.36
2023-05-20T08:37:45.505Z,56.27
2023-05-20T08:40:53.100Z,56.34
2023-05-20T08:43:56.134Z,55.35
2023-05-20T08:47:00.638Z,54.88
2023-05-20T08:50:04.038Z,56.24
2023-05-20T08:53:07.329Z,55.88
2023-05-20T08:56:12.709Z,55.12
2023-05-20T08:59:16.138Z,55.68
2023-05-20T09:02:20.146Z,55.97
2023-05-20T09:05:23.650Z,55.89
2023-05-20T09:08:27.297Z,55.39
2023-05-20T09:11:31.071Z,55.66
2023-05-20T09:14:33.744Z,55.11
2023-05-20T09:17:38.551Z,55.86
2023-05-20T09:20:41.863Z,55.63
2023-05-20T09:23:49.105Z,56.55
2023-05-20T09:26:52.263Z,55.16
2023-05-20T09:29:55.179Z,55.54
2023-05-20T09:33:01.115Z,55.31
2023-05-20T09:36:05.890Z,55.14
2023-05-20T09:39:10.801Z,54.04
2023-05-20T09:42:19.344Z,54.18
2023-05-20T09:45:23.278Z,54.27
2023-05-20T09:48:28.534Z,54.29
2023-05-20T09:51:32.401Z,54.37
2023-05-20T09:54:37.493Z,53.02
2023-05-20T09:57:40.266Z,53.29
2023-05-20T10:00:43.106Z,53.29
2023-05-20T10:03:47.503Z,52.47
2023-05-20T10:07:30.574Z,52.08
2023-05-20T10:10:48.536Z,52.04
2023-05-20T10:14:09.035Z,50.66
2023-05-20T10:17:18.437Z,50.40
2023-05-20T10:20:23.052Z,50.10
2023-05-20T10:23:29.744Z,50.13
2023-05-20T10:26:36.570Z,50.00
2023-05-20T10:32:56.871Z,49.57
2023-05-20T10:36:03.010Z,48.12
2023-05-20T10:39:05.854Z,47.68
2023-05-20T10:42:09.469Z,47.25
2023-05-20T10:45:13.243Z,47.34
2023-05-20T10:48:22.424Z,47.41
2023-05-20T10:51:29.604Z,48.32
2023-05-20T10:54:37.017Z,49.00
2023-05-20T10:57:39.834Z,48.72
2023-05-20T11:00:45.031Z,48.33
2023-05-20T11:03:48.459Z,47.71
2023-05-20T11:06:54.206Z,47.83
2023-05-20T11:09:57.523Z,47.61
2023-05-20T11:13:02.166Z,47.03
2023-05-20T11:16:06.894Z,47.37
2023-05-20T11:19:10.338Z,47.10
2023-05-20T11:22:14.679Z,47.23
2023-05-20T11:25:18.798Z,47.07
2023-05-20T11:28:22.732Z,47.32
2023-05-20T11:31:26.929Z,46.85
2023-05-20T11:34:35.333Z,46.41
2023-05-20T11:37:39.394Z,45.76
2023-05-20T11:40:52.784Z,45.80
2023-05-20T11:43:59.529Z,45.67
2023-05-20T11:47:03.760Z,45.34
2023-05-20T11:50:10.650Z,45.05
2023-05-20T11:53:17.797Z,45.07
2023-05-20T11:56:21.601Z,44.99
2023-05-20T11:59:28.279Z,45.10
2023-05-20T12:02:31.484Z,44.03
2023-05-20T12:05:34.333Z,44.21
2023-05-20T12:08:38.481Z,44.16
2023-05-20T12:11:42.030Z,43.70
2023-05-20T12:14:45.455Z,44.01
2023-05-20T12:17:49.992Z,43.89
2023-05-20T12:20:52.809Z,42.86
2023-05-20T12:23:58.164Z,43.06
2023-05-20T12:27:01.133Z,43.82
2023-05-20T12:30:04.553Z,43.69
2023-05-20T12:33:07.634Z,43.89
2023-05-20T12:36:10.546Z,42.27
2023-05-20T12:39:15.128Z,42.75
2023-05-20T12:42:17.858Z,43.08
2023-05-20T12:45:20.544Z,42.29
2023-05-20T12:48:23.848Z,42.72
2023-05-20T12:51:26.958Z,43.27
2023-05-20T12:54:31.441Z,43.03
2023-05-20T12:57:34.173Z,43.16
2023-05-20T13:00:37.433Z,42.77
2023-05-20T13:03:40.416Z,42.62
2023-05-20T13:06:43.926Z,42.22
2023-05-20T13:09:47.959Z,43.09
2023-05-20T13:12:51.026Z,41.91
2023-05-20T13:15:53.729Z,42.01
2023-05-20T13:18:56.708Z,42.33
2023-05-20T13:21:59.505Z,42.96
2023-05-20T13:25:04.398Z,43.20
2023-05-20T13:28:07.641Z,42.47
2023-05-20T13:31:12.462Z,43.48
2023-05-20T13:34:15.264Z,43.52
2023-05-20T13:37:18.036Z,42.89
2023-05-20T13:40:22.491Z,42.59
2023-05-20T13:43:25.834Z,43.15
2023-05-20T13:46:28.562Z,42.51
2023-05-20T13:49:31.925Z,42.82
2023-05-20T13:52:34.699Z,43.20
2023-05-20T13:55:38.863Z,43.01
2023-05-20T13:58:42.135Z,42.98
2023-05-20T14:01:45.841Z,43.11
2023-05-20T14:04:48.893Z,43.04
2023-05-20T14:07:52.058Z,42.14
2023-05-20T14:10:56.179Z,41.97
2023-05-20T14:13:59.168Z,41.44
2023-05-20T14:17:02.043Z,41.77
2023-05-20T14:20:07.042Z,42.60
2023-05-20T14:23:09.945Z,42.16
2023-05-20T14:26:14.618Z,42.76
2023-05-20T14:29:17.749Z,42.76
2023-05-20T14:32:20.541Z,43.04
2023-05-20T14:35:23.986Z,43.30
2023-05-20T14:38:27.504Z,42.54
2023-05-20T14:41:31.939Z,42.86
2023-05-20T14:44:34.832Z,42.04
2023-05-20T14:47:40.085Z,42.29
2023-05-20T14:50:43.119Z,42.14
2023-05-20T14:53:46.000Z,41.57
2023-05-20T14:56:50.084Z,41.78
2023-05-20T14:59:53.308Z,41.44
2023-05-20T15:02:56.077Z,42.16
2023-05-20T15:05:59.198Z,42.43
2023-05-20T15:09:01.971Z,42.99
2023-05-20T15:12:07.132Z,42.48
2023-05-20T15:15:10.871Z,42.41
2023-05-20T15:18:14.238Z,41.99
2023-05-20T15:21:17.968Z,42.28
2023-05-20T15:24:20.948Z,42.93
2023-05-20T15:27:25.462Z,42.48
2023-05-20T15:30:28.180Z,42.40
2023-05-20T15:33:30.995Z,42.45
2023-05-20T15:36:33.844Z,42.10
2023-05-20T15:39:38.335Z,42.81
2023-05-20T15:42:42.492Z,42.57
2023-05-20T15:45:46.021Z,42.94
2023-05-20T15:48:48.861Z,42.99
2023-05-20T15:52:02.339Z,42.29
2023-05-20T15:55:09.725Z,42.77
2023-05-20T15:58:14.146Z,43.13
2023-05-20T16:01:17.482Z,43.19
2023-05-20T16:04:20.788Z,43.35
2023-05-20T16:07:23.779Z,43.46
2023-05-20T16:10:32.649Z,43.64
2023-05-20T16:13:37.745Z,43.57
2023-05-20T16:16:40.835Z,43.96
2023-05-20T16:19:43.630Z,44.13
2023-05-20T16:22:46.896Z,43.84
2023-05-20T16:25:49.592Z,44.34
2023-05-20T16:28:53.767Z,44.78
2023-05-20T16:31:57.151Z,44.67
2023-05-20T16:35:00.062Z,44.94
2023-05-20T16:38:03.092Z,45.01
2023-05-20T16:41:06.045Z,44.46
2023-05-20T16:44:10.350Z,44.90
2023-05-20T16:47:13.396Z,45.55
2023-05-20T16:50:16.142Z,45.90
2023-05-20T16:53:18.930Z,46.15
2023-05-20T16:56:22.997Z,46.46
2023-05-20T16:59:30.084Z,47.05
2023-05-20T17:02:32.857Z,47.11
2023-05-20T17:05:35.624Z,46.93
2023-05-20T17:08:39.109Z,47.00
2023-05-20T17:11:41.820Z,47.37
2023-05-20T17:14:46.061Z,47.26
2023-05-20T17:17:48.779Z,46.97
2023-05-20T17:20:51.739Z,47.38
2023-05-20T17:23:55.017Z,47.63
2023-05-20T17:26:57.753Z,47.82
2023-05-20T17:30:02.313Z,47.94
2023-05-20T17:33:05.080Z,48.34
2023-05-20T17:36:08.315Z,48.24
2023-05-20T17:39:11.071Z,47.81
2023-05-20T17:42:13.947Z,47.66
2023-05-20T17:45:18.101Z,48.22
2023-05-20T17:48:21.105Z,48.70
2023-05-20T17:51:23.980Z,48.92
2023-05-20T17:54:26.974Z,49.04
2023-05-20T17:57:29.732Z,49.42
2023-05-20T18:00:43.138Z,49.82
2023-05-20T18:03:46.259Z,50.23
2023-05-20T18:06:49.122Z,50.58
2023-05-20T18:09:51.868Z,51.04
2023-05-20T18:12:54.554Z,51.56
2023-05-20T18:15:58.709Z,52.07
2023-05-20T18:19:02.736Z,52.90
2023-05-20T18:22:07.210Z,53.06
2023-05-20T18:25:11.615Z,52.73
2023-05-20T18:28:14.321Z,53.45
2023-05-20T18:31:18.562Z,53.47
2023-05-20T18:34:21.334Z,53.64
2023-05-20T18:37:24.145Z,54.48
2023-05-20T18:40:28.127Z,54.61
2023-05-20T18:43:30.972Z,54.50
2023-05-20T18:46:35.199Z,54.88
2023-05-20T18:49:37.966Z,55.32
2023-05-20T18:52:40.779Z,55.56
2023-05-20T18:55:43.614Z,56.00
2023-05-20T18:58:46.373Z,55.74
2023-05-20T19:01:50.510Z,56.21
2023-05-20T19:04:53.180Z,56.87
2023-05-20T19:07:56.162Z,57.26
2023-05-20T19:10:59.014Z,57.49
2023-05-20T19:14:01.993Z,58.27
2023-05-20T19:17:06.688Z,58.68
2023-05-20T19:20:10.488Z,59.07
2023-05-20T19:23:13.226Z,59.73
2023-05-20T19:26:16.034Z,60.02
2023-05-20T19:29:18.737Z,59.96
2023-05-20T19:32:22.818Z,60.79
2023-05-20T19:35:25.627Z,61.31
2023-05-20T19:38:28.438Z,61.40
2023-05-20T19:41:31.743Z,61.89
2023-05-20T19:44:34.478Z,62.01
2023-05-20T19:47:39.023Z,62.61
2023-05-20T19:50:41.910Z,63.30
2023-05-20T19:53:44.732Z,63.75
2023-05-20T19:56:47.507Z,64.03
2023-05-20T19:59:52.292Z,64.47
2023-05-20T20:02:57.962Z,64.76
2023-05-20T20:06:00.970Z,64.97
2023-05-20T20:09:04.831Z,65.12
2023-05-20T20:12:09.276Z,65.55
2023-05-20T20:15:12.499Z,66.39
2023-05-20T20:18:17.220Z,66.57
2023-05-20T20:21:20.151Z,67.88
2023-05-20T20:24:24.117Z,68.84
2023-05-20T20:27:26.984Z,68.30
2023-05-20T20:30:29.737Z,68.63
2023-05-20T20:33:33.815Z,68.69
2023-05-20T20:36:36.772Z,69.34
2023-05-20T20:39:39.488Z,69.41
2023-05-20T20:42:44.951Z,69.53
2023-05-20T20:45:47.827Z,69.95
2023-05-20T20:48:51.961Z,70.76
2023-05-20T20:51:57.136Z,71.57
2023-05-20T20:55:00.267Z,71.62
2023-05-20T20:58:05.255Z,71.78
2023-05-20T21:01:10.076Z,72.31
2023-05-20T21:04:14.529Z,72.67
2023-05-20T21:07:18.494Z,72.72
2023-05-20T21:10:21.295Z,72.79
2023-05-20T21:13:24.055Z,72.85
2023-05-20T21:16:26.751Z,72.97
2023-05-20T21:19:30.917Z,73.41
2023-05-20T21:22:33.827Z,73.73
2023-05-20T21:25:36.834Z,73.32
2023-05-20T21:28:39.826Z,73.61
2023-05-20T21:31:42.592Z,73.75
2023-05-20T21:34:46.690Z,73.79
2023-05-20T21:37:49.937Z,74.06
2023-05-20T21:40:52.702Z,74.59
2023-05-20T21:43:55.487Z,74.45
2023-05-20T21:46:58.294Z,74.20
2023-05-20T21:50:03.321Z,74.48
2023-05-20T21:53:06.320Z,74.27
2023-05-20T21:56:09.084Z,74.24
2023-05-20T21:59:11.858Z,74.61
2023-05-20T22:02:14.567Z,74.81
2023-05-20T22:05:19.759Z,75.06
2023-05-20T22:08:22.682Z,75.39
2023-05-20T22:11:26.380Z,75.48
2023-05-20T22:14:29.543Z,75.41
2023-05-20T22:17:34.073Z,75.40
2023-05-20T22:20:38.519Z,75.38
2023-05-20T22:23:41.373Z,75.89
2023-05-20T22:26:44.325Z,75.69
2023-05-20T22:29:47.434Z,76.10
2023-05-20T22:32:50.376Z,76.45
2023-05-20T22:35:54.570Z,76.87
2023-05-20T22:38:57.752Z,77.24
2023-05-20T22:42:00.556Z,77.45
2023-05-20T22:45:04.369Z,77.73
2023-05-20T22:48:07.239Z,77.71
2023-05-20T22:51:11.611Z,77.85
2023-05-20T22:54:14.467Z,78.19
2023-05-20T22:57:17.369Z,78.22
2023-05-20T23:00:20.166Z,78.29
2023-05-20T23:03:23.399Z,78.59
2023-05-20T23:06:27.588Z,78.86
2023-05-20T23:09:30.289Z,79.24
2023-05-20T23:12:33.097Z,79.84
2023-05-20T23:15:36.715Z,79.81
2023-05-20T23:18:40.002Z,79.85
2023-05-20T23:21:44.146Z,80.17
2023-05-20T23:24:46.873Z,79.99
2023-05-20T23:27:49.632Z,80.39
2023-05-20T23:30:52.449Z,80.46
2023-05-20T23:33:57.875Z,80.45
2023-05-20T23:37:02.384Z,80.60
2023-05-20T23:40:09.072Z,80.88
2023-05-20T23:43:11.790Z,80.92
2023-05-20T23:46:14.597Z,80.92
2023-05-20T23:49:18.427Z,80.89
2023-05-20T23:52:22.530Z,80.80
2023-05-20T23:55:25.616Z,80.42
2023-05-20T23:58:28.321Z,80.70
